Terminal Aerodrome Forecast
Issued by NWS

Home | Current Version | Previous Version | Text Only | Print | Product List | Glossary On
Versions: 1 2 3 4 5 6 7 8 9 10 11 12 13 14 15 16 17
045
FTUS46 KMTR 101135
TAFMRY
TAF
KMRY 101135Z 1012/1112 VRB04KT P6SM VCSH SCT015 BKN025 OVC040
      TEMPO 1016/1019 6SM -SHRA BR OVC020
     FM101900 20006KT 4SM -RA BR BKN009 OVC015
     FM102100 20006KT 4SM -RA BR BKN005 OVC009
     FM110400 VRB03KT 6SM -SHRA BR SCT006 BKN015 OVC030
     FM110800 VRB02KT 6SM BR VCSH FEW008 BKN020 OVC040=

USA.gov is the U.S. government's official web portal to all federal, state and local government web resources and services.